sensor_id;sensor_type;location;lat;lon;timestamp;P1;durP1;ratioP1;P2;durP2;ratioP2
10523;SDS011;5310;48.638;9.060;2022-10-22T00:00:39;0.40;;;0.40;;
10523;SDS011;5310;48.638;9.060;2022-10-22T00:03:06;0.40;;;0.40;;
10523;SDS011;5310;48.638;9.060;2022-10-22T00:05:31;0.40;;;0.40;;
10523;SDS011;5310;48.638;9.060;2022-10-22T00:07:57;0.40;;;0.40;;
10523;SDS011;5310;48.638;9.060;2022-10-22T00:10:23;0.40;;;0.40;;
10523;SDS011;5310;48.638;9.060;2022-10-22T00:12:49;0.40;;;0.40;;
10523;SDS011;5310;48.638;9.060;2022-10-22T00:15:15;0.30;;;0.30;;
10523;SDS011;5310;48.638;9.060;2022-10-22T00:17:40;0.30;;;0.30;;
10523;SDS011;5310;48.638;9.060;2022-10-22T00:20:06;0.30;;;0.30;;
10523;SDS011;5310;48.638;9.060;2022-10-22T00:22:32;0.30;;;0.30;;
10523;SDS011;5310;48.638;9.060;2022-10-22T00:24:58;0.30;;;0.30;;
10523;SDS011;5310;48.638;9.060;2022-10-22T00:27:24;0.30;;;0.30;;
10523;SDS011;5310;48.638;9.060;2022-10-22T00:29:49;0.30;;;0.30;;
10523;SDS011;5310;48.638;9.060;2022-10-22T00:32:15;0.30;;;0.30;;
10523;SDS011;5310;48.638;9.060;2022-10-22T00:34:41;0.30;;;0.30;;
10523;SDS011;5310;48.638;9.060;2022-10-22T00:37:07;0.30;;;0.30;;
10523;SDS011;5310;48.638;9.060;2022-10-22T00:39:33;0.35;;;0.35;;
10523;SDS011;5310;48.638;9.060;2022-10-22T00:41:59;0.30;;;0.30;;
10523;SDS011;5310;48.638;9.060;2022-10-22T00:47:25;0.40;;;0.40;;
10523;SDS011;5310;48.638;9.060;2022-10-22T00:49:55;0.30;;;0.30;;
10523;SDS011;5310;48.638;9.060;2022-10-22T00:52:22;0.35;;;0.35;;
10523;SDS011;5310;48.638;9.060;2022-10-22T00:54:48;0.40;;;0.40;;
10523;SDS011;5310;48.638;9.060;2022-10-22T00:57:15;0.35;;;0.35;;
10523;SDS011;5310;48.638;9.060;2022-10-22T00:59:43;0.30;;;0.30;;
10523;SDS011;5310;48.638;9.060;2022-10-22T01:02:09;0.30;;;0.30;;
10523;SDS011;5310;48.638;9.060;2022-10-22T01:04:35;0.30;;;0.30;;
10523;SDS011;5310;48.638;9.060;2022-10-22T01:07:03;0.32;;;0.32;;
10523;SDS011;5310;48.638;9.060;2022-10-22T01:09:35;0.43;;;0.43;;
10523;SDS011;5310;48.638;9.060;2022-10-22T01:17:42;0.30;;;0.30;;
10523;SDS011;5310;48.638;9.060;2022-10-22T01:25:36;0.40;;;0.40;;
10523;SDS011;5310;48.638;9.060;2022-10-22T01:30:42;0.30;;;0.30;;
10523;SDS011;5310;48.638;9.060;2022-10-22T01:33:10;0.30;;;0.30;;
10523;SDS011;5310;48.638;9.060;2022-10-22T01:35:40;0.30;;;0.30;;
10523;SDS011;5310;48.638;9.060;2022-10-22T01:38:09;0.40;;;0.40;;
10523;SDS011;5310;48.638;9.060;2022-10-22T01:40:38;0.30;;;0.30;;
10523;SDS011;5310;48.638;9.060;2022-10-22T01:43:05;0.40;;;0.40;;
10523;SDS011;5310;48.638;9.060;2022-10-22T01:45:34;0.38;;;0.38;;
10523;SDS011;5310;48.638;9.060;2022-10-22T01:48:25;0.40;;;0.40;;
10523;SDS011;5310;48.638;9.060;2022-10-22T01:54:05;0.40;;;0.40;;
10523;SDS011;5310;48.638;9.060;2022-10-22T01:59:42;0.43;;;0.43;;
10523;SDS011;5310;48.638;9.060;2022-10-22T02:04:57;0.40;;;0.40;;
10523;SDS011;5310;48.638;9.060;2022-10-22T02:07:30;0.40;;;0.40;;
10523;SDS011;5310;48.638;9.060;2022-10-22T02:09:59;0.40;;;0.40;;
10523;SDS011;5310;48.638;9.060;2022-10-22T02:12:26;0.32;;;0.32;;
10523;SDS011;5310;48.638;9.060;2022-10-22T02:14:55;0.38;;;0.38;;
10523;SDS011;5310;48.638;9.060;2022-10-22T02:17:22;0.30;;;0.30;;
10523;SDS011;5310;48.638;9.060;2022-10-22T02:19:56;0.40;;;0.40;;
10523;SDS011;5310;48.638;9.060;2022-10-22T02:22:25;0.30;;;0.30;;
10523;SDS011;5310;48.638;9.060;2022-10-22T02:24:51;0.40;;;0.40;;
10523;SDS011;5310;48.638;9.060;2022-10-22T02:32:19;0.50;;;0.50;;
10523;SDS011;5310;48.638;9.060;2022-10-22T02:34:46;0.50;;;0.50;;
10523;SDS011;5310;48.638;9.060;2022-10-22T02:37:13;0.50;;;0.50;;
10523;SDS011;5310;48.638;9.060;2022-10-22T02:39:40;0.50;;;0.50;;
10523;SDS011;5310;48.638;9.060;2022-10-22T02:42:07;0.30;;;0.30;;
10523;SDS011;5310;48.638;9.060;2022-10-22T02:44:33;0.40;;;0.40;;
10523;SDS011;5310;48.638;9.060;2022-10-22T02:46:59;0.50;;;0.50;;
10523;SDS011;5310;48.638;9.060;2022-10-22T02:49:24;0.50;;;0.50;;
10523;SDS011;5310;48.638;9.060;2022-10-22T02:51:51;0.40;;;0.40;;
10523;SDS011;5310;48.638;9.060;2022-10-22T02:54:16;0.50;;;0.50;;
10523;SDS011;5310;48.638;9.060;2022-10-22T02:56:42;0.50;;;0.50;;
10523;SDS011;5310;48.638;9.060;2022-10-22T02:59:08;0.47;;;0.47;;
10523;SDS011;5310;48.638;9.060;2022-10-22T03:01:34;0.40;;;0.40;;
10523;SDS011;5310;48.638;9.060;2022-10-22T03:03:59;0.50;;;0.50;;
10523;SDS011;5310;48.638;9.060;2022-10-22T03:06:25;0.60;;;0.60;;
10523;SDS011;5310;48.638;9.060;2022-10-22T03:08:51;0.47;;;0.47;;
10523;SDS011;5310;48.638;9.060;2022-10-22T03:11:17;0.40;;;0.40;;
10523;SDS011;5310;48.638;9.060;2022-10-22T03:13:44;0.40;;;0.40;;
10523;SDS011;5310;48.638;9.060;2022-10-22T03:16:09;0.50;;;0.50;;
10523;SDS011;5310;48.638;9.060;2022-10-22T03:18:35;0.50;;;0.50;;
10523;SDS011;5310;48.638;9.060;2022-10-22T03:21:05;0.40;;;0.40;;
10523;SDS011;5310;48.638;9.060;2022-10-22T03:23:35;0.40;;;0.40;;
10523;SDS011;5310;48.638;9.060;2022-10-22T03:26:01;0.45;;;0.45;;
10523;SDS011;5310;48.638;9.060;2022-10-22T03:28:29;0.50;;;0.50;;
10523;SDS011;5310;48.638;9.060;2022-10-22T03:30:55;0.50;;;0.50;;
10523;SDS011;5310;48.638;9.060;2022-10-22T03:33:20;0.50;;;0.50;;
10523;SDS011;5310;48.638;9.060;2022-10-22T03:35:46;0.40;;;0.40;;
10523;SDS011;5310;48.638;9.060;2022-10-22T03:38:12;0.40;;;0.40;;
10523;SDS011;5310;48.638;9.060;2022-10-22T03:40:40;0.35;;;0.35;;
10523;SDS011;5310;48.638;9.060;2022-10-22T03:43:06;0.40;;;0.40;;
10523;SDS011;5310;48.638;9.060;2022-10-22T03:45:33;0.40;;;0.40;;
10523;SDS011;5310;48.638;9.060;2022-10-22T03:47:58;0.40;;;0.40;;
10523;SDS011;5310;48.638;9.060;2022-10-22T03:50:24;0.50;;;0.50;;
10523;SDS011;5310;48.638;9.060;2022-10-22T03:52:50;0.50;;;0.50;;
10523;SDS011;5310;48.638;9.060;2022-10-22T03:55:17;0.50;;;0.50;;
10523;SDS011;5310;48.638;9.060;2022-10-22T03:57:43;0.40;;;0.40;;
10523;SDS011;5310;48.638;9.060;2022-10-22T04:00:08;0.40;;;0.40;;
10523;SDS011;5310;48.638;9.060;2022-10-22T04:02:34;0.30;;;0.30;;
10523;SDS011;5310;48.638;9.060;2022-10-22T04:05:00;0.30;;;0.30;;
10523;SDS011;5310;48.638;9.060;2022-10-22T04:07:26;0.30;;;0.30;;
10523;SDS011;5310;48.638;9.060;2022-10-22T04:09:52;0.38;;;0.38;;
10523;SDS011;5310;48.638;9.060;2022-10-22T04:12:17;0.50;;;0.50;;
10523;SDS011;5310;48.638;9.060;2022-10-22T04:14:43;0.50;;;0.50;;
10523;SDS011;5310;48.638;9.060;2022-10-22T04:17:09;0.40;;;0.40;;
10523;SDS011;5310;48.638;9.060;2022-10-22T04:19:35;0.40;;;0.40;;
10523;SDS011;5310;48.638;9.060;2022-10-22T04:22:02;0.40;;;0.40;;
10523;SDS011;5310;48.638;9.060;2022-10-22T04:24:29;0.60;;;0.60;;
10523;SDS011;5310;48.638;9.060;2022-10-22T04:26:55;0.40;;;0.40;;
10523;SDS011;5310;48.638;9.060;2022-10-22T04:29:21;0.43;;;0.43;;
10523;SDS011;5310;48.638;9.060;2022-10-22T04:31:47;0.50;;;0.50;;
10523;SDS011;5310;48.638;9.060;2022-10-22T04:34:13;0.50;;;0.50;;
10523;SDS011;5310;48.638;9.060;2022-10-22T04:36:39;0.40;;;0.40;;
10523;SDS011;5310;48.638;9.060;2022-10-22T04:39:05;0.50;;;0.50;;
10523;SDS011;5310;48.638;9.060;2022-10-22T04:41:32;0.60;;;0.60;;
10523;SDS011;5310;48.638;9.060;2022-10-22T04:43:59;0.40;;;0.40;;
10523;SDS011;5310;48.638;9.060;2022-10-22T04:46:28;0.50;;;0.50;;
10523;SDS011;5310;48.638;9.060;2022-10-22T04:48:55;0.50;;;0.50;;
10523;SDS011;5310;48.638;9.060;2022-10-22T04:51:22;0.47;;;0.47;;
10523;SDS011;5310;48.638;9.060;2022-10-22T04:53:48;0.40;;;0.40;;
10523;SDS011;5310;48.638;9.060;2022-10-22T04:56:16;0.40;;;0.40;;
10523;SDS011;5310;48.638;9.060;2022-10-22T04:58:44;0.50;;;0.50;;
10523;SDS011;5310;48.638;9.060;2022-10-22T05:01:15;0.40;;;0.40;;
10523;SDS011;5310;48.638;9.060;2022-10-22T05:03:45;0.37;;;0.37;;
10523;SDS011;5310;48.638;9.060;2022-10-22T05:06:13;0.40;;;0.40;;
10523;SDS011;5310;48.638;9.060;2022-10-22T05:08:39;0.50;;;0.50;;
10523;SDS011;5310;48.638;9.060;2022-10-22T05:11:15;0.43;;;0.43;;
10523;SDS011;5310;48.638;9.060;2022-10-22T05:13:46;0.40;;;0.40;;
10523;SDS011;5310;48.638;9.060;2022-10-22T05:16:13;0.30;;;0.30;;
10523;SDS011;5310;48.638;9.060;2022-10-22T05:18:39;0.40;;;0.40;;
10523;SDS011;5310;48.638;9.060;2022-10-22T05:21:07;0.50;;;0.50;;
10523;SDS011;5310;48.638;9.060;2022-10-22T05:23:38;0.50;;;0.50;;
10523;SDS011;5310;48.638;9.060;2022-10-22T05:26:05;0.40;;;0.40;;
10523;SDS011;5310;48.638;9.060;2022-10-22T05:28:32;0.40;;;0.40;;
10523;SDS011;5310;48.638;9.060;2022-10-22T05:31:00;0.52;;;0.52;;
10523;SDS011;5310;48.638;9.060;2022-10-22T05:33:27;0.45;;;0.45;;
10523;SDS011;5310;48.638;9.060;2022-10-22T05:35:53;0.40;;;0.40;;
10523;SDS011;5310;48.638;9.060;2022-10-22T05:38:19;0.50;;;0.50;;
10523;SDS011;5310;48.638;9.060;2022-10-22T05:40:45;0.50;;;0.50;;
10523;SDS011;5310;48.638;9.060;2022-10-22T05:43:11;0.40;;;0.40;;
10523;SDS011;5310;48.638;9.060;2022-10-22T05:45:40;0.40;;;0.40;;
10523;SDS011;5310;48.638;9.060;2022-10-22T05:48:07;0.50;;;0.50;;
10523;SDS011;5310;48.638;9.060;2022-10-22T05:50:37;0.40;;;0.40;;
10523;SDS011;5310;48.638;9.060;2022-10-22T05:53:03;0.37;;;0.37;;
10523;SDS011;5310;48.638;9.060;2022-10-22T05:55:29;0.40;;;0.40;;
10523;SDS011;5310;48.638;9.060;2022-10-22T05:58:01;0.50;;;0.50;;
10523;SDS011;5310;48.638;9.060;2022-10-22T06:00:26;0.30;;;0.30;;
10523;SDS011;5310;48.638;9.060;2022-10-22T06:02:52;0.40;;;0.40;;
10523;SDS011;5310;48.638;9.060;2022-10-22T06:05:18;0.50;;;0.50;;
10523;SDS011;5310;48.638;9.060;2022-10-22T06:07:44;0.50;;;0.50;;
10523;SDS011;5310;48.638;9.060;2022-10-22T06:10:13;0.32;;;0.32;;
10523;SDS011;5310;48.638;9.060;2022-10-22T06:12:39;0.30;;;0.30;;
10523;SDS011;5310;48.638;9.060;2022-10-22T06:15:05;0.40;;;0.40;;
10523;SDS011;5310;48.638;9.060;2022-10-22T06:17:31;0.50;;;0.50;;
10523;SDS011;5310;48.638;9.060;2022-10-22T06:19:57;0.50;;;0.50;;
10523;SDS011;5310;48.638;9.060;2022-10-22T06:22:23;0.38;;;0.38;;
10523;SDS011;5310;48.638;9.060;2022-10-22T06:24:48;0.30;;;0.30;;
10523;SDS011;5310;48.638;9.060;2022-10-22T06:27:14;0.30;;;0.30;;
10523;SDS011;5310;48.638;9.060;2022-10-22T06:29:41;0.30;;;0.30;;
10523;SDS011;5310;48.638;9.060;2022-10-22T06:32:07;0.30;;;0.30;;
10523;SDS011;5310;48.638;9.060;2022-10-22T06:34:33;0.40;;;0.40;;
10523;SDS011;5310;48.638;9.060;2022-10-22T06:36:59;0.40;;;0.40;;
10523;SDS011;5310;48.638;9.060;2022-10-22T06:39:25;0.50;;;0.50;;
10523;SDS011;5310;48.638;9.060;2022-10-22T06:41:51;0.50;;;0.50;;
10523;SDS011;5310;48.638;9.060;2022-10-22T06:44:18;0.40;;;0.40;;
10523;SDS011;5310;48.638;9.060;2022-10-22T06:46:44;0.43;;;0.43;;
10523;SDS011;5310;48.638;9.060;2022-10-22T06:49:13;0.50;;;0.50;;
10523;SDS011;5310;48.638;9.060;2022-10-22T06:51:39;0.40;;;0.40;;
10523;SDS011;5310;48.638;9.060;2022-10-22T06:54:05;0.40;;;0.40;;
10523;SDS011;5310;48.638;9.060;2022-10-22T06:56:31;0.30;;;0.30;;
10523;SDS011;5310;48.638;9.060;2022-10-22T06:58:57;0.30;;;0.30;;
10523;SDS011;5310;48.638;9.060;2022-10-22T07:01:25;0.30;;;0.30;;
10523;SDS011;5310;48.638;9.060;2022-10-22T07:03:51;0.40;;;0.40;;
10523;SDS011;5310;48.638;9.060;2022-10-22T07:06:18;0.40;;;0.40;;
10523;SDS011;5310;48.638;9.060;2022-10-22T07:08:44;0.43;;;0.43;;
10523;SDS011;5310;48.638;9.060;2022-10-22T07:11:14;0.40;;;0.40;;
10523;SDS011;5310;48.638;9.060;2022-10-22T07:13:52;0.40;;;0.40;;
10523;SDS011;5310;48.638;9.060;2022-10-22T07:16:22;0.55;;;0.55;;
10523;SDS011;5310;48.638;9.060;2022-10-22T07:18:48;0.40;;;0.40;;
10523;SDS011;5310;48.638;9.060;2022-10-22T07:21:15;0.30;;;0.30;;
10523;SDS011;5310;48.638;9.060;2022-10-22T07:23:43;0.40;;;0.40;;
10523;SDS011;5310;48.638;9.060;2022-10-22T07:26:10;0.40;;;0.40;;
10523;SDS011;5310;48.638;9.060;2022-10-22T07:28:36;0.45;;;0.45;;
10523;SDS011;5310;48.638;9.060;2022-10-22T07:31:04;0.50;;;0.50;;
10523;SDS011;5310;48.638;9.060;2022-10-22T07:33:30;0.50;;;0.50;;
10523;SDS011;5310;48.638;9.060;2022-10-22T07:35:57;0.40;;;0.40;;
10523;SDS011;5310;48.638;9.060;2022-10-22T07:38:23;0.40;;;0.40;;
10523;SDS011;5310;48.638;9.060;2022-10-22T07:40:49;0.40;;;0.40;;
10523;SDS011;5310;48.638;9.060;2022-10-22T07:43:15;0.30;;;0.30;;
10523;SDS011;5310;48.638;9.060;2022-10-22T07:45:41;0.38;;;0.38;;
10523;SDS011;5310;48.638;9.060;2022-10-22T07:48:07;0.40;;;0.40;;
10523;SDS011;5310;48.638;9.060;2022-10-22T07:50:33;0.40;;;0.40;;
10523;SDS011;5310;48.638;9.060;2022-10-22T07:52:59;0.40;;;0.40;;
10523;SDS011;5310;48.638;9.060;2022-10-22T07:55:25;0.40;;;0.40;;
10523;SDS011;5310;48.638;9.060;2022-10-22T07:57:50;0.40;;;0.40;;
10523;SDS011;5310;48.638;9.060;2022-10-22T08:00:16;0.40;;;0.40;;
10523;SDS011;5310;48.638;9.060;2022-10-22T08:02:42;0.50;;;0.50;;
10523;SDS011;5310;48.638;9.060;2022-10-22T08:05:08;0.40;;;0.40;;
10523;SDS011;5310;48.638;9.060;2022-10-22T08:07:34;0.40;;;0.40;;
10523;SDS011;5310;48.638;9.060;2022-10-22T08:10:00;0.40;;;0.40;;
10523;SDS011;5310;48.638;9.060;2022-10-22T08:12:26;0.40;;;0.40;;
10523;SDS011;5310;48.638;9.060;2022-10-22T08:14:52;0.43;;;0.43;;
10523;SDS011;5310;48.638;9.060;2022-10-22T08:17:18;0.40;;;0.40;;
10523;SDS011;5310;48.638;9.060;2022-10-22T08:19:44;0.40;;;0.40;;
10523;SDS011;5310;48.638;9.060;2022-10-22T08:22:09;0.40;;;0.40;;
10523;SDS011;5310;48.638;9.060;2022-10-22T08:24:35;0.50;;;0.50;;
10523;SDS011;5310;48.638;9.060;2022-10-22T08:27:00;0.50;;;0.50;;
10523;SDS011;5310;48.638;9.060;2022-10-22T08:29:26;0.40;;;0.40;;
10523;SDS011;5310;48.638;9.060;2022-10-22T08:31:52;0.40;;;0.40;;
10523;SDS011;5310;48.638;9.060;2022-10-22T08:34:18;0.40;;;0.40;;
10523;SDS011;5310;48.638;9.060;2022-10-22T08:36:44;0.40;;;0.40;;
10523;SDS011;5310;48.638;9.060;2022-10-22T08:39:10;0.30;;;0.30;;
10523;SDS011;5310;48.638;9.060;2022-10-22T08:47:21;0.40;;;0.40;;
10523;SDS011;5310;48.638;9.060;2022-10-22T08:49:55;0.30;;;0.30;;
10523;SDS011;5310;48.638;9.060;2022-10-22T08:52:23;0.30;;;0.30;;
10523;SDS011;5310;48.638;9.060;2022-10-22T09:00:18;0.40;;;0.40;;
10523;SDS011;5310;48.638;9.060;2022-10-22T09:08:09;0.30;;;0.30;;
10523;SDS011;5310;48.638;9.060;2022-10-22T09:10:36;0.30;;;0.30;;
10523;SDS011;5310;48.638;9.060;2022-10-22T09:13:07;0.30;;;0.30;;
10523;SDS011;5310;48.638;9.060;2022-10-22T09:15:38;0.30;;;0.30;;
10523;SDS011;5310;48.638;9.060;2022-10-22T09:18:29;0.30;;;0.30;;
10523;SDS011;5310;48.638;9.060;2022-10-22T09:20:53;0.40;;;0.40;;
10523;SDS011;5310;48.638;9.060;2022-10-22T09:23:23;0.30;;;0.30;;
10523;SDS011;5310;48.638;9.060;2022-10-22T09:25:51;0.30;;;0.30;;
10523;SDS011;5310;48.638;9.060;2022-10-22T09:28:17;0.30;;;0.30;;
10523;SDS011;5310;48.638;9.060;2022-10-22T09:30:43;0.40;;;0.40;;
10523;SDS011;5310;48.638;9.060;2022-10-22T09:33:11;0.30;;;0.30;;
10523;SDS011;5310;48.638;9.060;2022-10-22T09:35:52;0.30;;;0.30;;
10523;SDS011;5310;48.638;9.060;2022-10-22T09:38:20;0.30;;;0.30;;
10523;SDS011;5310;48.638;9.060;2022-10-22T09:40:52;0.30;;;0.30;;
10523;SDS011;5310;48.638;9.060;2022-10-22T09:43:19;0.30;;;0.30;;
10523;SDS011;5310;48.638;9.060;2022-10-22T09:45:45;0.40;;;0.40;;
10523;SDS011;5310;48.638;9.060;2022-10-22T09:48:22;0.30;;;0.30;;
10523;SDS011;5310;48.638;9.060;2022-10-22T09:53:34;0.20;;;0.20;;
10523;SDS011;5310;48.638;9.060;2022-10-22T09:56:13;0.30;;;0.30;;
10523;SDS011;5310;48.638;9.060;2022-10-22T09:58:42;0.30;;;0.30;;
10523;SDS011;5310;48.638;9.060;2022-10-22T10:01:14;0.30;;;0.30;;
10523;SDS011;5310;48.638;9.060;2022-10-22T10:03:40;0.30;;;0.30;;
10523;SDS011;5310;48.638;9.060;2022-10-22T10:06:06;0.35;;;0.35;;
10523;SDS011;5310;48.638;9.060;2022-10-22T10:08:32;0.30;;;0.30;;
10523;SDS011;5310;48.638;9.060;2022-10-22T10:10:59;0.30;;;0.30;;
10523;SDS011;5310;48.638;9.060;2022-10-22T10:13:28;0.30;;;0.30;;
10523;SDS011;5310;48.638;9.060;2022-10-22T10:18:55;0.30;;;0.30;;
10523;SDS011;5310;48.638;9.060;2022-10-22T10:21:46;0.30;;;0.30;;
10523;SDS011;5310;48.638;9.060;2022-10-22T10:26:53;0.30;;;0.30;;
10523;SDS011;5310;48.638;9.060;2022-10-22T10:32:02;0.30;;;0.30;;
10523;SDS011;5310;48.638;9.060;2022-10-22T10:48:08;0.30;;;0.30;;
10523;SDS011;5310;48.638;9.060;2022-10-22T10:55:52;0.32;;;0.32;;
10523;SDS011;5310;48.638;9.060;2022-10-22T10:58:44;0.30;;;0.30;;
10523;SDS011;5310;48.638;9.060;2022-10-22T11:06:25;0.30;;;0.30;;
10523;SDS011;5310;48.638;9.060;2022-10-22T11:11:38;0.20;;;0.20;;
10523;SDS011;5310;48.638;9.060;2022-10-22T11:17:00;0.28;;;0.28;;
10523;SDS011;5310;48.638;9.060;2022-10-22T11:22:37;0.20;;;0.20;;
10523;SDS011;5310;48.638;9.060;2022-10-22T11:27:39;0.20;;;0.20;;
10523;SDS011;5310;48.638;9.060;2022-10-22T11:30:11;0.30;;;0.30;;
10523;SDS011;5310;48.638;9.060;2022-10-22T11:32:38;0.30;;;0.30;;
10523;SDS011;5310;48.638;9.060;2022-10-22T11:35:06;0.30;;;0.30;;
10523;SDS011;5310;48.638;9.060;2022-10-22T11:37:36;0.30;;;0.30;;
10523;SDS011;5310;48.638;9.060;2022-10-22T11:42:48;0.30;;;0.30;;
10523;SDS011;5310;48.638;9.060;2022-10-22T11:50:45;0.30;;;0.30;;
10523;SDS011;5310;48.638;9.060;2022-10-22T11:53:19;0.30;;;0.30;;
10523;SDS011;5310;48.638;9.060;2022-10-22T11:55:46;0.30;;;0.30;;
10523;SDS011;5310;48.638;9.060;2022-10-22T12:08:58;0.20;;;0.20;;
10523;SDS011;5310;48.638;9.060;2022-10-22T12:11:26;0.30;;;0.30;;
10523;SDS011;5310;48.638;9.060;2022-10-22T12:14:18;0.20;;;0.20;;
10523;SDS011;5310;48.638;9.060;2022-10-22T12:19:11;0.20;;;0.20;;
10523;SDS011;5310;48.638;9.060;2022-10-22T12:21:44;0.20;;;0.20;;
10523;SDS011;5310;48.638;9.060;2022-10-22T12:24:13;0.30;;;0.30;;
10523;SDS011;5310;48.638;9.060;2022-10-22T12:26:40;0.30;;;0.30;;
10523;SDS011;5310;48.638;9.060;2022-10-22T12:29:10;0.20;;;0.20;;
10523;SDS011;5310;48.638;9.060;2022-10-22T12:31:37;0.30;;;0.30;;
10523;SDS011;5310;48.638;9.060;2022-10-22T12:34:06;0.30;;;0.30;;
10523;SDS011;5310;48.638;9.060;2022-10-22T12:36:35;0.30;;;0.30;;
10523;SDS011;5310;48.638;9.060;2022-10-22T12:39:01;0.20;;;0.20;;
10523;SDS011;5310;48.638;9.060;2022-10-22T12:41:33;0.20;;;0.20;;
10523;SDS011;5310;48.638;9.060;2022-10-22T12:44:01;0.22;;;0.22;;
10523;SDS011;5310;48.638;9.060;2022-10-22T12:46:31;0.20;;;0.20;;
10523;SDS011;5310;48.638;9.060;2022-10-22T12:49:01;0.20;;;0.20;;
10523;SDS011;5310;48.638;9.060;2022-10-22T12:51:27;0.20;;;0.20;;
10523;SDS011;5310;48.638;9.060;2022-10-22T12:53:54;0.20;;;0.20;;
10523;SDS011;5310;48.638;9.060;2022-10-22T12:56:22;0.30;;;0.30;;
10523;SDS011;5310;48.638;9.060;2022-10-22T12:58:51;0.20;;;0.20;;
10523;SDS011;5310;48.638;9.060;2022-10-22T13:01:17;0.20;;;0.20;;
10523;SDS011;5310;48.638;9.060;2022-10-22T13:03:45;0.20;;;0.20;;
10523;SDS011;5310;48.638;9.060;2022-10-22T13:08:44;0.20;;;0.20;;
10523;SDS011;5310;48.638;9.060;2022-10-22T13:11:10;0.20;;;0.20;;
10523;SDS011;5310;48.638;9.060;2022-10-22T13:16:14;0.20;;;0.20;;
10523;SDS011;5310;48.638;9.060;2022-10-22T13:18:42;0.20;;;0.20;;
10523;SDS011;5310;48.638;9.060;2022-10-22T13:24:03;0.28;;;0.28;;
10523;SDS011;5310;48.638;9.060;2022-10-22T13:26:46;0.20;;;0.20;;
10523;SDS011;5310;48.638;9.060;2022-10-22T13:29:14;0.20;;;0.20;;
10523;SDS011;5310;48.638;9.060;2022-10-22T13:31:47;0.20;;;0.20;;
10523;SDS011;5310;48.638;9.060;2022-10-22T13:34:18;0.20;;;0.20;;
10523;SDS011;5310;48.638;9.060;2022-10-22T13:36:46;0.20;;;0.20;;
10523;SDS011;5310;48.638;9.060;2022-10-22T13:39:19;0.20;;;0.20;;
10523;SDS011;5310;48.638;9.060;2022-10-22T13:41:48;0.20;;;0.20;;
10523;SDS011;5310;48.638;9.060;2022-10-22T13:44:15;0.20;;;0.20;;
10523;SDS011;5310;48.638;9.060;2022-10-22T13:46:42;0.20;;;0.20;;
10523;SDS011;5310;48.638;9.060;2022-10-22T13:49:16;0.20;;;0.20;;
10523;SDS011;5310;48.638;9.060;2022-10-22T13:51:44;0.20;;;0.20;;
10523;SDS011;5310;48.638;9.060;2022-10-22T13:54:20;0.20;;;0.20;;
10523;SDS011;5310;48.638;9.060;2022-10-22T13:56:47;0.30;;;0.30;;
10523;SDS011;5310;48.638;9.060;2022-10-22T13:59:14;0.20;;;0.20;;
10523;SDS011;5310;48.638;9.060;2022-10-22T14:01:39;0.20;;;0.20;;
10523;SDS011;5310;48.638;9.060;2022-10-22T14:04:09;0.20;;;0.20;;
10523;SDS011;5310;48.638;9.060;2022-10-22T14:06:37;0.30;;;0.30;;
10523;SDS011;5310;48.638;9.060;2022-10-22T14:09:04;0.20;;;0.20;;
10523;SDS011;5310;48.638;9.060;2022-10-22T14:11:32;0.20;;;0.20;;
10523;SDS011;5310;48.638;9.060;2022-10-22T14:13:59;0.22;;;0.22;;
10523;SDS011;5310;48.638;9.060;2022-10-22T14:16:32;0.30;;;0.30;;
10523;SDS011;5310;48.638;9.060;2022-10-22T14:18:58;0.30;;;0.30;;
10523;SDS011;5310;48.638;9.060;2022-10-22T14:21:27;0.30;;;0.30;;
10523;SDS011;5310;48.638;9.060;2022-10-22T14:23:54;0.30;;;0.30;;
10523;SDS011;5310;48.638;9.060;2022-10-22T14:26:21;0.20;;;0.20;;
10523;SDS011;5310;48.638;9.060;2022-10-22T14:28:48;0.22;;;0.22;;
10523;SDS011;5310;48.638;9.060;2022-10-22T14:31:15;0.20;;;0.20;;
10523;SDS011;5310;48.638;9.060;2022-10-22T14:33:41;0.22;;;0.22;;
10523;SDS011;5310;48.638;9.060;2022-10-22T14:36:08;0.20;;;0.20;;
10523;SDS011;5310;48.638;9.060;2022-10-22T14:38:36;0.25;;;0.25;;
10523;SDS011;5310;48.638;9.060;2022-10-22T14:41:04;0.30;;;0.30;;
10523;SDS011;5310;48.638;9.060;2022-10-22T14:43:35;0.20;;;0.20;;
10523;SDS011;5310;48.638;9.060;2022-10-22T14:46:00;0.30;;;0.30;;
10523;SDS011;5310;48.638;9.060;2022-10-22T14:48:26;0.22;;;0.22;;
10523;SDS011;5310;48.638;9.060;2022-10-22T14:50:53;0.30;;;0.30;;
10523;SDS011;5310;48.638;9.060;2022-10-22T14:53:19;0.30;;;0.30;;
10523;SDS011;5310;48.638;9.060;2022-10-22T14:55:45;0.30;;;0.30;;
10523;SDS011;5310;48.638;9.060;2022-10-22T14:58:13;0.30;;;0.30;;
10523;SDS011;5310;48.638;9.060;2022-10-22T15:00:42;0.30;;;0.30;;
10523;SDS011;5310;48.638;9.060;2022-10-22T15:03:08;0.30;;;0.30;;
10523;SDS011;5310;48.638;9.060;2022-10-22T15:05:34;0.30;;;0.30;;
10523;SDS011;5310;48.638;9.060;2022-10-22T15:08:00;0.30;;;0.30;;
10523;SDS011;5310;48.638;9.060;2022-10-22T15:10:26;0.30;;;0.30;;
10523;SDS011;5310;48.638;9.060;2022-10-22T15:12:52;0.25;;;0.25;;
10523;SDS011;5310;48.638;9.060;2022-10-22T15:15:17;0.30;;;0.30;;
10523;SDS011;5310;48.638;9.060;2022-10-22T15:17:43;0.28;;;0.28;;
10523;SDS011;5310;48.638;9.060;2022-10-22T15:20:08;0.30;;;0.30;;
10523;SDS011;5310;48.638;9.060;2022-10-22T15:22:34;0.30;;;0.30;;
10523;SDS011;5310;48.638;9.060;2022-10-22T15:25:02;0.30;;;0.30;;
10523;SDS011;5310;48.638;9.060;2022-10-22T15:27:28;0.30;;;0.30;;
10523;SDS011;5310;48.638;9.060;2022-10-22T15:29:56;0.20;;;0.20;;
10523;SDS011;5310;48.638;9.060;2022-10-22T15:32:25;0.20;;;0.20;;
10523;SDS011;5310;48.638;9.060;2022-10-22T15:34:52;0.20;;;0.20;;
10523;SDS011;5310;48.638;9.060;2022-10-22T15:37:18;0.25;;;0.25;;
10523;SDS011;5310;48.638;9.060;2022-10-22T15:39:44;0.30;;;0.30;;
10523;SDS011;5310;48.638;9.060;2022-10-22T15:42:10;0.30;;;0.30;;
10523;SDS011;5310;48.638;9.060;2022-10-22T15:44:36;0.30;;;0.30;;
10523;SDS011;5310;48.638;9.060;2022-10-22T15:47:03;0.20;;;0.20;;
10523;SDS011;5310;48.638;9.060;2022-10-22T15:49:31;0.20;;;0.20;;
10523;SDS011;5310;48.638;9.060;2022-10-22T15:51:59;0.30;;;0.30;;
10523;SDS011;5310;48.638;9.060;2022-10-22T15:54:26;0.30;;;0.30;;
10523;SDS011;5310;48.638;9.060;2022-10-22T15:56:53;0.25;;;0.25;;
10523;SDS011;5310;48.638;9.060;2022-10-22T15:59:19;0.30;;;0.30;;
10523;SDS011;5310;48.638;9.060;2022-10-22T16:01:45;0.30;;;0.30;;
10523;SDS011;5310;48.638;9.060;2022-10-22T16:04:11;0.30;;;0.30;;
10523;SDS011;5310;48.638;9.060;2022-10-22T16:06:39;0.40;;;0.40;;
10523;SDS011;5310;48.638;9.060;2022-10-22T16:09:08;0.30;;;0.30;;
10523;SDS011;5310;48.638;9.060;2022-10-22T16:11:34;0.20;;;0.20;;
10523;SDS011;5310;48.638;9.060;2022-10-22T16:14:01;0.30;;;0.30;;
10523;SDS011;5310;48.638;9.060;2022-10-22T16:16:28;0.30;;;0.30;;
10523;SDS011;5310;48.638;9.060;2022-10-22T16:18:54;0.30;;;0.30;;
10523;SDS011;5310;48.638;9.060;2022-10-22T16:21:21;0.30;;;0.30;;
10523;SDS011;5310;48.638;9.060;2022-10-22T16:23:47;0.30;;;0.30;;
10523;SDS011;5310;48.638;9.060;2022-10-22T16:26:13;0.30;;;0.30;;
10523;SDS011;5310;48.638;9.060;2022-10-22T16:28:40;0.30;;;0.30;;
10523;SDS011;5310;48.638;9.060;2022-10-22T16:31:06;0.30;;;0.30;;
10523;SDS011;5310;48.638;9.060;2022-10-22T16:33:34;0.40;;;0.40;;
10523;SDS011;5310;48.638;9.060;2022-10-22T16:36:00;0.30;;;0.30;;
10523;SDS011;5310;48.638;9.060;2022-10-22T16:38:27;0.38;;;0.38;;
10523;SDS011;5310;48.638;9.060;2022-10-22T16:40:53;0.30;;;0.30;;
10523;SDS011;5310;48.638;9.060;2022-10-22T16:43:29;0.30;;;0.30;;
10523;SDS011;5310;48.638;9.060;2022-10-22T16:45:56;0.40;;;0.40;;
10523;SDS011;5310;48.638;9.060;2022-10-22T16:48:22;0.30;;;0.30;;
10523;SDS011;5310;48.638;9.060;2022-10-22T16:50:48;0.30;;;0.30;;
10523;SDS011;5310;48.638;9.060;2022-10-22T16:53:13;0.30;;;0.30;;
10523;SDS011;5310;48.638;9.060;2022-10-22T16:55:39;0.30;;;0.30;;
10523;SDS011;5310;48.638;9.060;2022-10-22T16:58:05;0.30;;;0.30;;
10523;SDS011;5310;48.638;9.060;2022-10-22T17:00:31;0.20;;;0.20;;
10523;SDS011;5310;48.638;9.060;2022-10-22T17:02:58;0.30;;;0.30;;
10523;SDS011;5310;48.638;9.060;2022-10-22T17:05:23;0.30;;;0.30;;